createdAt,value
2023-04-26T00:01:15.018Z,16.20
2023-04-26T00:04:17.571Z,16.10
2023-04-26T00:07:20.464Z,16.10
2023-04-26T00:10:22.944Z,16.10
2023-04-26T00:13:25.311Z,16.10
2023-04-26T00:16:27.574Z,16.10
2023-04-26T00:19:29.829Z,16.10
2023-04-26T00:22:32.056Z,16.10
2023-04-26T00:25:34.325Z,16.10
2023-04-26T00:28:36.625Z,16.10
2023-04-26T00:31:38.912Z,16.10
2023-04-26T00:34:41.340Z,16.10
2023-04-26T00:37:43.710Z,16.10
2023-04-26T00:40:45.976Z,16.10
2023-04-26T00:43:48.230Z,16.10
2023-04-26T00:46:52.948Z,16.10
2023-04-26T00:49:55.395Z,16.10
2023-04-26T00:53:02.592Z,16.10
2023-04-26T00:56:07.952Z,16.00
2023-04-26T00:59:10.271Z,16.00
2023-04-26T01:02:13.119Z,16.00
2023-04-26T01:05:15.491Z,16.00
2023-04-26T01:08:21.329Z,16.00
2023-04-26T01:11:23.841Z,16.00
2023-04-26T01:14:27.423Z,16.00
2023-04-26T01:17:30.090Z,16.00
2023-04-26T01:20:32.606Z,16.00
2023-04-26T01:23:36.956Z,16.00
2023-04-26T01:26:46.756Z,16.00
2023-04-26T01:29:52.044Z,16.00
2023-04-26T01:32:54.625Z,16.00
2023-04-26T01:35:56.984Z,16.00
2023-04-26T01:38:59.204Z,16.00
2023-04-26T01:42:03.195Z,16.00
2023-04-26T01:45:08.060Z,15.90
2023-04-26T01:48:28.904Z,16.00
2023-04-26T01:51:31.182Z,15.90
2023-04-26T01:54:33.536Z,15.90
2023-04-26T01:57:35.963Z,15.90
2023-04-26T02:00:38.212Z,15.90
2023-04-26T02:03:40.849Z,15.90
2023-04-26T02:06:43.290Z,15.90
2023-04-26T02:09:46.733Z,15.90
2023-04-26T02:12:49.030Z,15.90
2023-04-26T02:15:51.833Z,15.90
2023-04-26T02:18:55.192Z,15.90
2023-04-26T02:21:58.939Z,15.90
2023-04-26T02:25:01.195Z,15.90
2023-04-26T02:28:06.151Z,15.90
2023-04-26T02:31:09.213Z,15.90
2023-04-26T02:34:12.915Z,15.90
2023-04-26T02:37:15.234Z,15.80
2023-04-26T02:40:18.285Z,15.80
2023-04-26T02:43:20.534Z,15.90
2023-04-26T02:46:22.902Z,15.80
2023-04-26T02:49:25.338Z,15.90
2023-04-26T02:52:28.306Z,15.80
2023-04-26T02:55:31.172Z,15.80
2023-04-26T02:58:33.568Z,15.80
2023-04-26T03:01:35.883Z,15.80
2023-04-26T03:04:38.588Z,15.80
2023-04-26T03:07:41.011Z,15.80
2023-04-26T03:10:46.032Z,15.80
2023-04-26T03:13:48.370Z,15.80
2023-04-26T03:16:50.711Z,15.80
2023-04-26T03:19:53.157Z,15.80
2023-04-26T03:22:55.969Z,15.70
2023-04-26T03:25:59.020Z,15.70
2023-04-26T03:29:02.118Z,15.70
2023-04-26T03:32:04.869Z,15.80
2023-04-26T03:35:07.707Z,15.70
2023-04-26T03:38:10.074Z,15.70
2023-04-26T03:41:13.089Z,15.70
2023-04-26T03:44:15.829Z,15.70
2023-04-26T03:47:18.531Z,15.70
2023-04-26T03:50:21.137Z,15.70
2023-04-26T03:53:23.482Z,15.70
2023-04-26T03:56:25.978Z,15.70
2023-04-26T03:59:28.749Z,15.70
2023-04-26T04:02:31.724Z,15.70
2023-04-26T04:05:34.530Z,15.70
2023-04-26T04:08:36.991Z,15.60
2023-04-26T04:11:39.410Z,15.60
2023-04-26T04:14:41.987Z,15.70
2023-04-26T04:17:44.427Z,15.60
2023-04-26T04:20:46.714Z,15.60
2023-04-26T04:23:50.486Z,15.60
2023-04-26T04:26:53.016Z,15.60
2023-04-26T04:29:56.011Z,15.60
2023-04-26T04:33:00.491Z,15.60
2023-04-26T04:36:02.905Z,15.60
2023-04-26T04:39:09.836Z,15.60
2023-04-26T04:42:12.487Z,15.60
2023-04-26T04:45:15.128Z,15.60
2023-04-26T04:48:18.865Z,15.60
2023-04-26T04:51:22.050Z,15.60
2023-04-26T04:54:24.363Z,15.50
2023-04-26T04:57:27.005Z,15.50
2023-04-26T05:00:29.958Z,15.60
2023-04-26T05:03:55.525Z,15.50
2023-04-26T05:06:58.998Z,15.50
2023-04-26T05:10:01.549Z,15.50
2023-04-26T05:13:04.307Z,15.50
2023-04-26T05:16:06.970Z,15.50
2023-04-26T05:19:09.791Z,15.50
2023-04-26T05:22:18.604Z,15.50
2023-04-26T05:25:22.654Z,15.50
2023-04-26T05:28:29.700Z,15.50
2023-04-26T05:31:52.243Z,15.50
2023-04-26T05:35:12.909Z,15.50
2023-04-26T05:38:15.366Z,15.40
2023-04-26T05:41:17.684Z,15.50
2023-04-26T05:44:20.039Z,15.50
2023-04-26T05:47:22.545Z,15.40
2023-04-26T05:50:24.804Z,15.50
2023-04-26T05:53:27.230Z,15.40
2023-04-26T05:56:29.626Z,15.40
2023-04-26T05:59:36.746Z,15.40
2023-04-26T06:02:39.959Z,15.40
2023-04-26T06:05:45.083Z,15.40
2023-04-26T06:08:47.453Z,15.40
2023-04-26T06:11:49.852Z,15.40
2023-04-26T06:14:52.267Z,15.40
2023-04-26T06:17:57.136Z,15.40
2023-04-26T06:20:59.427Z,15.40
2023-04-26T06:24:01.729Z,15.40
2023-04-26T06:27:04.731Z,15.40
2023-04-26T06:30:10.671Z,15.40
2023-04-26T06:33:17.191Z,15.40
2023-04-26T06:36:19.447Z,15.40
2023-04-26T06:39:21.770Z,15.40
2023-04-26T06:42:24.228Z,15.40
2023-04-26T06:45:44.892Z,15.40
2023-04-26T06:48:47.906Z,15.40
2023-04-26T06:51:50.369Z,15.40
2023-04-26T06:54:57.085Z,15.40
2023-04-26T06:58:00.254Z,15.40
2023-04-26T07:01:02.839Z,15.40
2023-04-26T07:04:10.953Z,15.40
2023-04-26T07:07:14.605Z,15.50
2023-04-26T07:10:16.800Z,15.40
2023-04-26T07:13:19.111Z,15.50
2023-04-26T07:16:21.763Z,15.50
2023-04-26T07:19:24.137Z,15.50
2023-04-26T07:22:26.457Z,15.50
2023-04-26T07:25:28.940Z,15.50
2023-04-26T07:28:32.000Z,15.60
2023-04-26T07:31:34.719Z,15.60
2023-04-26T07:34:37.163Z,15.60
2023-04-26T07:37:39.736Z,15.60
2023-04-26T07:40:43.439Z,15.60
2023-04-26T07:43:45.763Z,15.70
2023-04-26T07:46:48.002Z,15.70
2023-04-26T07:49:53.925Z,15.70
2023-04-26T07:52:56.204Z,15.80
2023-04-26T07:55:58.555Z,15.80
2023-04-26T07:59:00.915Z,15.80
2023-04-26T08:02:03.248Z,15.80
2023-04-26T08:05:06.091Z,15.90
2023-04-26T08:08:08.534Z,15.90
2023-04-26T08:11:11.256Z,15.90
2023-04-26T08:14:13.588Z,15.90
2023-04-26T08:17:16.492Z,16.00
2023-04-26T08:20:19.059Z,16.00
2023-04-26T08:23:23.018Z,16.00
2023-04-26T08:26:25.526Z,16.00
2023-04-26T08:29:28.226Z,16.10
2023-04-26T08:32:30.886Z,16.10
2023-04-26T08:35:33.230Z,16.10
2023-04-26T08:38:36.865Z,16.10
2023-04-26T08:41:53.210Z,16.20
2023-04-26T08:44:55.876Z,16.20
2023-04-26T08:48:09.382Z,16.20
2023-04-26T08:51:14.679Z,16.30
2023-04-26T08:54:18.447Z,16.30
2023-04-26T08:57:21.803Z,16.30
2023-04-26T09:00:24.511Z,16.40
2023-04-26T09:03:27.640Z,16.40
2023-04-26T09:06:30.094Z,16.40
2023-04-26T09:09:39.036Z,16.40
2023-04-26T09:12:41.492Z,16.40
2023-04-26T09:15:43.871Z,16.40
2023-04-26T09:18:52.839Z,16.50
2023-04-26T09:21:56.437Z,16.50
2023-04-26T09:24:59.273Z,16.50
2023-04-26T09:28:02.686Z,16.50
2023-04-26T09:31:05.009Z,16.50
2023-04-26T09:34:07.338Z,16.60
2023-04-26T09:37:14.124Z,16.60
2023-04-26T09:40:21.070Z,16.60
2023-04-26T09:43:23.612Z,16.70
2023-04-26T09:46:25.985Z,16.70
2023-04-26T09:49:30.320Z,16.70
2023-04-26T09:52:42.564Z,16.70
2023-04-26T09:55:45.083Z,16.80
2023-04-26T09:58:47.422Z,16.80
2023-04-26T10:01:49.692Z,16.80
2023-04-26T10:04:55.021Z,16.80
2023-04-26T10:07:57.348Z,16.80
2023-04-26T10:11:02.010Z,16.80
2023-04-26T10:14:05.153Z,16.80
2023-04-26T10:17:07.473Z,16.90
2023-04-26T10:20:13.625Z,16.90
2023-04-26T10:23:21.696Z,16.90
2023-04-26T10:26:57.446Z,16.90
2023-04-26T10:33:34.585Z,16.90
2023-04-26T10:37:09.143Z,16.90
2023-04-26T10:40:26.040Z,16.90
2023-04-26T10:43:29.062Z,16.90
2023-04-26T10:46:39.945Z,16.90
2023-04-26T10:49:47.248Z,16.90
2023-04-26T10:53:04.249Z,17.00
2023-04-26T10:56:07.081Z,17.00
2023-04-26T10:59:28.490Z,17.00
2023-04-26T11:02:59.434Z,17.00
2023-04-26T11:06:07.405Z,17.00
2023-04-26T11:09:40.089Z,17.00
2023-04-26T11:12:42.639Z,17.00
2023-04-26T11:15:45.010Z,17.00
2023-04-26T11:18:48.164Z,17.00
2023-04-26T11:21:50.786Z,17.00
2023-04-26T11:24:53.436Z,17.10
2023-04-26T11:28:03.199Z,17.10
2023-04-26T11:31:07.487Z,17.10
2023-04-26T11:34:09.828Z,17.10
2023-04-26T11:37:12.151Z,17.10
2023-04-26T11:40:17.201Z,17.10
2023-04-26T11:43:20.902Z,17.10
2023-04-26T11:46:24.427Z,17.10
2023-04-26T11:49:26.875Z,17.10
2023-04-26T11:52:29.227Z,17.10
2023-04-26T11:55:33.329Z,17.20
2023-04-26T11:58:35.694Z,17.10
2023-04-26T12:01:38.345Z,17.10
2023-04-26T12:04:41.761Z,17.20
2023-04-26T12:07:49.620Z,17.20
2023-04-26T12:10:51.936Z,17.20
2023-04-26T12:13:54.270Z,17.20
2023-04-26T12:16:58.854Z,17.20
2023-04-26T12:20:10.329Z,17.20
2023-04-26T12:23:17.112Z,17.20
2023-04-26T12:26:20.748Z,17.20
2023-04-26T12:29:23.076Z,17.20
2023-04-26T12:32:25.976Z,17.20
2023-04-26T12:35:28.287Z,17.20
2023-04-26T12:38:30.685Z,17.20
2023-04-26T12:41:32.980Z,17.20
2023-04-26T12:44:35.241Z,17.20
2023-04-26T12:47:37.738Z,17.20
2023-04-26T12:50:39.990Z,17.20
2023-04-26T12:53:42.226Z,17.20
2023-04-26T12:56:45.322Z,17.20
2023-04-26T12:59:47.595Z,17.20
2023-04-26T13:02:49.955Z,17.20
2023-04-26T13:05:52.700Z,17.20
2023-04-26T13:08:55.004Z,17.20
2023-04-26T13:11:57.390Z,17.20
2023-04-26T13:14:59.659Z,17.20
2023-04-26T13:18:01.927Z,17.20
2023-04-26T13:21:04.543Z,17.20
2023-04-26T13:24:07.032Z,17.20
2023-04-26T13:27:10.166Z,17.20
2023-04-26T13:30:13.864Z,17.20
2023-04-26T13:33:16.205Z,17.20
2023-04-26T13:36:18.629Z,17.20
2023-04-26T13:39:20.976Z,17.20
2023-04-26T13:42:23.263Z,17.20
2023-04-26T13:45:25.637Z,17.20
2023-04-26T13:48:28.245Z,17.20
2023-04-26T13:51:31.007Z,17.20
2023-04-26T13:54:33.330Z,17.20
2023-04-26T13:57:36.316Z,17.20
2023-04-26T14:00:38.630Z,17.20
2023-04-26T14:03:42.002Z,17.20
2023-04-26T14:06:44.418Z,17.20
2023-04-26T14:09:46.668Z,17.20
2023-04-26T14:12:48.858Z,17.20
2023-04-26T14:15:51.285Z,17.20
2023-04-26T14:18:53.500Z,17.20
2023-04-26T14:21:55.734Z,17.20
2023-04-26T14:24:58.189Z,17.20
2023-04-26T14:28:01.829Z,17.20
2023-04-26T14:31:04.436Z,17.20
2023-04-26T14:34:06.777Z,17.20
2023-04-26T14:37:09.259Z,17.20
2023-04-26T14:40:12.093Z,17.20
2023-04-26T14:43:14.317Z,17.20
2023-04-26T14:46:16.805Z,17.20
2023-04-26T14:49:19.879Z,17.20
2023-04-26T14:52:26.977Z,17.20
2023-04-26T14:55:29.317Z,17.20
2023-04-26T14:58:31.612Z,17.20
2023-04-26T15:01:33.969Z,17.20
2023-04-26T15:04:38.240Z,17.20
2023-04-26T15:07:41.123Z,17.20
2023-04-26T15:10:43.691Z,17.20
2023-04-26T15:13:46.286Z,17.20
2023-04-26T15:16:48.670Z,17.20
2023-04-26T15:19:51.214Z,17.20
2023-04-26T15:22:53.488Z,17.20
2023-04-26T15:25:55.712Z,17.20
2023-04-26T15:28:58.271Z,17.20
2023-04-26T15:32:01.186Z,17.20
2023-04-26T15:35:06.131Z,17.10
2023-04-26T15:38:13.016Z,17.20
2023-04-26T15:41:17.325Z,17.10
2023-04-26T15:44:21.308Z,17.10
2023-04-26T15:47:25.748Z,17.20
2023-04-26T15:50:30.187Z,17.10
2023-04-26T15:53:33.263Z,17.20
2023-04-26T15:56:36.646Z,17.10
2023-04-26T15:59:39.151Z,17.20
2023-04-26T16:02:44.996Z,17.10
2023-04-26T16:05:48.373Z,17.20
2023-04-26T16:08:50.676Z,17.20
2023-04-26T16:11:53.020Z,17.10
2023-04-26T16:14:55.255Z,17.10
2023-04-26T16:17:57.650Z,17.20
2023-04-26T16:21:07.872Z,17.10
2023-04-26T16:24:11.718Z,17.20
2023-04-26T16:27:14.218Z,17.10
2023-04-26T16:30:16.661Z,17.10
2023-04-26T16:33:21.368Z,17.20
2023-04-26T16:36:25.590Z,17.10
2023-04-26T16:39:28.928Z,17.20
2023-04-26T16:42:31.409Z,17.20
2023-04-26T16:45:33.839Z,17.20
2023-04-26T16:48:38.352Z,17.10
2023-04-26T16:51:42.191Z,17.10
2023-04-26T16:54:44.563Z,17.10
2023-04-26T16:57:47.022Z,17.10
2023-04-26T17:00:49.683Z,17.10
2023-04-26T17:03:52.571Z,17.10
2023-04-26T17:06:55.239Z,17.10
2023-04-26T17:09:57.583Z,17.20
2023-04-26T17:13:01.043Z,17.10
2023-04-26T17:16:05.968Z,17.10
2023-04-26T17:19:08.448Z,17.20
2023-04-26T17:22:11.582Z,17.20
2023-04-26T17:25:14.028Z,17.20
2023-04-26T17:28:16.753Z,17.10
2023-04-26T17:31:19.061Z,17.10
2023-04-26T17:34:21.284Z,17.10
2023-04-26T17:37:23.565Z,17.10
2023-04-26T17:40:25.916Z,17.10
2023-04-26T17:43:28.121Z,17.10
2023-04-26T17:46:30.413Z,17.10
2023-04-26T17:49:32.679Z,17.10
2023-04-26T17:52:34.999Z,17.10
2023-04-26T17:55:37.655Z,17.10
2023-04-26T17:58:40.000Z,17.10
2023-04-26T18:01:42.334Z,17.10
2023-04-26T18:04:45.886Z,17.10
2023-04-26T18:07:48.351Z,17.10
2023-04-26T18:10:54.001Z,17.10
2023-04-26T18:13:56.224Z,17.10
2023-04-26T18:16:58.518Z,17.10
2023-04-26T18:20:01.349Z,17.10
2023-04-26T18:23:04.177Z,17.10
2023-04-26T18:26:06.530Z,17.10
2023-04-26T18:29:08.860Z,17.10
2023-04-26T18:32:11.105Z,17.10
2023-04-26T18:35:13.475Z,17.10
2023-04-26T18:38:16.371Z,17.10
2023-04-26T18:41:18.597Z,17.10
2023-04-26T18:44:20.946Z,17.10
2023-04-26T18:47:23.535Z,17.10
2023-04-26T18:50:26.329Z,17.10
2023-04-26T18:53:28.707Z,17.10
2023-04-26T18:56:31.730Z,17.10
2023-04-26T18:59:33.963Z,17.10
2023-04-26T19:02:40.346Z,17.10
2023-04-26T19:05:43.309Z,17.10
2023-04-26T19:08:45.964Z,17.10
2023-04-26T19:11:48.218Z,17.10
2023-04-26T19:14:50.577Z,17.10
2023-04-26T19:17:52.941Z,17.10
2023-04-26T19:20:55.230Z,17.10
2023-04-26T19:23:58.495Z,17.10
2023-04-26T19:27:00.954Z,17.10
2023-04-26T19:30:03.257Z,17.10
2023-04-26T19:33:06.047Z,17.10
2023-04-26T19:36:10.652Z,17.10
2023-04-26T19:39:12.928Z,17.10
2023-04-26T19:42:15.196Z,17.10
2023-04-26T19:45:20.645Z,17.10
2023-04-26T19:48:22.966Z,17.00
2023-04-26T19:51:25.194Z,17.10
2023-04-26T19:54:27.530Z,17.00
2023-04-26T19:57:29.945Z,17.00
2023-04-26T20:00:35.746Z,17.00
2023-04-26T20:03:39.582Z,17.00
2023-04-26T20:06:42.168Z,17.10
2023-04-26T20:09:44.359Z,17.00
2023-04-26T20:12:46.650Z,17.00
2023-04-26T20:15:48.952Z,17.00
2023-04-26T20:18:51.784Z,17.00
2023-04-26T20:21:54.032Z,17.00
2023-04-26T20:24:56.383Z,17.00
2023-04-26T20:27:58.776Z,17.00
2023-04-26T20:31:01.128Z,17.00
2023-04-26T20:34:03.426Z,17.00
2023-04-26T20:37:06.090Z,17.00
2023-04-26T20:40:09.504Z,17.00
2023-04-26T20:43:12.426Z,17.00
2023-04-26T20:46:14.721Z,16.90
2023-04-26T20:49:17.254Z,16.90
2023-04-26T20:52:19.663Z,17.00
2023-04-26T20:55:22.945Z,17.00
2023-04-26T20:58:25.244Z,17.00
2023-04-26T21:01:28.197Z,16.90
2023-04-26T21:04:31.010Z,16.90
2023-04-26T21:07:33.948Z,16.90
2023-04-26T21:10:36.874Z,16.90
2023-04-26T21:13:39.210Z,16.90
2023-04-26T21:16:41.722Z,16.90
2023-04-26T21:19:44.794Z,16.90
2023-04-26T21:22:47.137Z,16.90
2023-04-26T21:25:49.443Z,16.90
2023-04-26T21:28:51.762Z,16.90
2023-04-26T21:31:54.136Z,16.90
2023-04-26T21:34:56.417Z,16.90
2023-04-26T21:37:59.539Z,16.90
2023-04-26T21:41:01.782Z,16.90
2023-04-26T21:44:04.200Z,16.90
2023-04-26T21:47:06.713Z,16.90
2023-04-26T21:50:09.642Z,16.90
2023-04-26T21:53:11.824Z,16.90
2023-04-26T21:56:15.005Z,16.90
2023-04-26T21:59:17.292Z,16.90
2023-04-26T22:02:19.628Z,16.90
2023-04-26T22:05:22.483Z,16.80
2023-04-26T22:08:24.709Z,16.80
2023-04-26T22:11:27.188Z,16.80
2023-04-26T22:14:29.420Z,16.80
2023-04-26T22:17:31.712Z,16.80
2023-04-26T22:20:34.187Z,16.80
2023-04-26T22:23:36.617Z,16.80
2023-04-26T22:26:38.941Z,16.80
2023-04-26T22:29:41.165Z,16.80
2023-04-26T22:32:43.512Z,16.80
2023-04-26T22:35:45.748Z,16.80
2023-04-26T22:38:47.998Z,16.80
2023-04-26T22:41:51.128Z,16.80
2023-04-26T22:44:53.352Z,16.80
2023-04-26T22:47:55.690Z,16.80
2023-04-26T22:50:57.994Z,16.80
2023-04-26T22:54:00.542Z,16.80
2023-04-26T22:57:03.530Z,16.70
2023-04-26T23:00:09.718Z,16.70
2023-04-26T23:03:12.141Z,16.70
2023-04-26T23:06:14.445Z,16.70
2023-04-26T23:09:17.058Z,16.70
2023-04-26T23:12:23.882Z,16.70
2023-04-26T23:15:26.211Z,16.70
2023-04-26T23:18:28.471Z,16.70
2023-04-26T23:21:31.328Z,16.70
2023-04-26T23:24:33.586Z,16.70
2023-04-26T23:27:36.848Z,16.70
2023-04-26T23:30:39.130Z,16.70
2023-04-26T23:33:41.384Z,16.70
2023-04-26T23:36:43.643Z,16.70
2023-04-26T23:39:45.953Z,16.70
2023-04-26T23:42:48.182Z,16.70
2023-04-26T23:45:50.517Z,16.70
2023-04-26T23:48:52.801Z,16.60
2023-04-26T23:51:55.668Z,16.60
2023-04-26T23:54:58.135Z,16.60
2023-04-26T23:58:00.418Z,16.60
